sensor_id;sensor_type;location;lat;lon;timestamp;P1;durP1;ratioP1;P2;durP2;ratioP2
65096;SDS011;51686;46.758;4.356;2023-04-09T00:01:08;10.13;;;5.35;;
65096;SDS011;51686;46.758;4.356;2023-04-09T00:03:56;11.32;;;6.22;;
65096;SDS011;51686;46.758;4.356;2023-04-09T00:06:43;11.25;;;5.68;;
65096;SDS011;51686;46.758;4.356;2023-04-09T00:09:30;11.00;;;5.55;;
65096;SDS011;51686;46.758;4.356;2023-04-09T00:12:17;10.30;;;5.13;;
65096;SDS011;51686;46.758;4.356;2023-04-09T00:15:04;11.20;;;5.53;;
65096;SDS011;51686;46.758;4.356;2023-04-09T00:17:54;10.55;;;5.55;;
65096;SDS011;51686;46.758;4.356;2023-04-09T00:20:42;10.93;;;5.45;;
65096;SDS011;51686;46.758;4.356;2023-04-09T00:23:29;10.60;;;5.38;;
65096;SDS011;51686;46.758;4.356;2023-04-09T00:26:16;10.98;;;5.95;;
65096;SDS011;51686;46.758;4.356;2023-04-09T00:29:03;9.75;;;5.43;;
65096;SDS011;51686;46.758;4.356;2023-04-09T00:31:49;11.25;;;5.72;;
65096;SDS011;51686;46.758;4.356;2023-04-09T00:34:36;10.68;;;5.25;;
65096;SDS011;51686;46.758;4.356;2023-04-09T00:37:24;10.68;;;5.55;;
65096;SDS011;51686;46.758;4.356;2023-04-09T00:40:11;11.45;;;5.68;;
65096;SDS011;51686;46.758;4.356;2023-04-09T00:42:58;9.73;;;4.90;;
65096;SDS011;51686;46.758;4.356;2023-04-09T00:45:44;11.52;;;5.30;;
65096;SDS011;51686;46.758;4.356;2023-04-09T00:48:31;10.48;;;5.38;;
65096;SDS011;51686;46.758;4.356;2023-04-09T00:51:19;10.73;;;5.57;;
65096;SDS011;51686;46.758;4.356;2023-04-09T00:54:06;10.60;;;5.45;;
65096;SDS011;51686;46.758;4.356;2023-04-09T00:56:53;10.88;;;5.40;;
65096;SDS011;51686;46.758;4.356;2023-04-09T00:59:42;10.35;;;5.32;;
65096;SDS011;51686;46.758;4.356;2023-04-09T01:02:29;11.00;;;5.53;;
65096;SDS011;51686;46.758;4.356;2023-04-09T01:05:17;10.93;;;5.70;;
65096;SDS011;51686;46.758;4.356;2023-04-09T01:08:10;9.27;;;5.28;;
65096;SDS011;51686;46.758;4.356;2023-04-09T01:11:05;10.45;;;5.63;;
65096;SDS011;51686;46.758;4.356;2023-04-09T01:15:04;10.45;;;5.43;;
65096;SDS011;51686;46.758;4.356;2023-04-09T01:23:50;11.13;;;5.47;;
65096;SDS011;51686;46.758;4.356;2023-04-09T01:27:05;10.15;;;5.25;;
65096;SDS011;51686;46.758;4.356;2023-04-09T01:29:53;11.18;;;5.20;;
65096;SDS011;51686;46.758;4.356;2023-04-09T01:32:40;11.18;;;5.45;;
65096;SDS011;51686;46.758;4.356;2023-04-09T01:35:28;9.55;;;5.32;;
65096;SDS011;51686;46.758;4.356;2023-04-09T01:38:15;10.48;;;5.10;;
65096;SDS011;51686;46.758;4.356;2023-04-09T01:41:04;9.98;;;5.22;;
65096;SDS011;51686;46.758;4.356;2023-04-09T01:43:52;9.50;;;5.00;;
65096;SDS011;51686;46.758;4.356;2023-04-09T01:46:40;10.48;;;5.30;;
65096;SDS011;51686;46.758;4.356;2023-04-09T01:49:27;11.68;;;6.10;;
65096;SDS011;51686;46.758;4.356;2023-04-09T01:52:14;9.85;;;5.25;;
65096;SDS011;51686;46.758;4.356;2023-04-09T01:55:01;10.70;;;5.47;;
65096;SDS011;51686;46.758;4.356;2023-04-09T01:57:48;10.40;;;5.47;;
65096;SDS011;51686;46.758;4.356;2023-04-09T02:00:37;10.38;;;5.20;;
65096;SDS011;51686;46.758;4.356;2023-04-09T02:03:26;11.38;;;6.10;;
65096;SDS011;51686;46.758;4.356;2023-04-09T02:09:18;10.43;;;5.55;;
65096;SDS011;51686;46.758;4.356;2023-04-09T02:12:08;10.52;;;5.13;;
65096;SDS011;51686;46.758;4.356;2023-04-09T02:14:57;10.93;;;5.57;;
65096;SDS011;51686;46.758;4.356;2023-04-09T02:17:44;10.05;;;5.20;;
65096;SDS011;51686;46.758;4.356;2023-04-09T02:20:32;10.20;;;5.43;;
65096;SDS011;51686;46.758;4.356;2023-04-09T02:23:19;11.65;;;6.00;;
65096;SDS011;51686;46.758;4.356;2023-04-09T02:26:06;10.40;;;5.70;;
65096;SDS011;51686;46.758;4.356;2023-04-09T02:28:52;10.40;;;5.63;;
65096;SDS011;51686;46.758;4.356;2023-04-09T02:31:40;10.15;;;5.00;;
65096;SDS011;51686;46.758;4.356;2023-04-09T02:34:27;9.63;;;5.07;;
65096;SDS011;51686;46.758;4.356;2023-04-09T02:37:13;11.13;;;5.45;;
65096;SDS011;51686;46.758;4.356;2023-04-09T02:40:00;10.23;;;5.00;;
65096;SDS011;51686;46.758;4.356;2023-04-09T02:42:47;10.57;;;5.07;;
65096;SDS011;51686;46.758;4.356;2023-04-09T02:45:34;9.65;;;5.10;;
65096;SDS011;51686;46.758;4.356;2023-04-09T02:48:21;10.80;;;5.65;;
65096;SDS011;51686;46.758;4.356;2023-04-09T02:51:08;10.38;;;5.45;;
65096;SDS011;51686;46.758;4.356;2023-04-09T02:53:55;10.73;;;5.47;;
65096;SDS011;51686;46.758;4.356;2023-04-09T02:56:42;11.38;;;5.38;;
65096;SDS011;51686;46.758;4.356;2023-04-09T02:59:29;10.68;;;5.50;;
65096;SDS011;51686;46.758;4.356;2023-04-09T03:02:18;10.55;;;5.38;;
65096;SDS011;51686;46.758;4.356;2023-04-09T03:05:05;10.15;;;5.47;;
65096;SDS011;51686;46.758;4.356;2023-04-09T03:07:52;11.20;;;5.53;;
65096;SDS011;51686;46.758;4.356;2023-04-09T03:10:39;10.55;;;5.35;;
65096;SDS011;51686;46.758;4.356;2023-04-09T03:13:27;10.52;;;5.70;;
65096;SDS011;51686;46.758;4.356;2023-04-09T03:16:13;10.95;;;5.00;;
65096;SDS011;51686;46.758;4.356;2023-04-09T03:19:00;11.48;;;5.82;;
65096;SDS011;51686;46.758;4.356;2023-04-09T03:21:47;10.55;;;5.22;;
65096;SDS011;51686;46.758;4.356;2023-04-09T03:24:34;10.32;;;5.45;;
65096;SDS011;51686;46.758;4.356;2023-04-09T03:27:21;10.57;;;5.43;;
65096;SDS011;51686;46.758;4.356;2023-04-09T03:30:08;10.63;;;5.50;;
65096;SDS011;51686;46.758;4.356;2023-04-09T03:32:56;9.75;;;5.10;;
65096;SDS011;51686;46.758;4.356;2023-04-09T03:35:44;10.57;;;5.43;;
65096;SDS011;51686;46.758;4.356;2023-04-09T03:38:31;10.27;;;5.47;;
65096;SDS011;51686;46.758;4.356;2023-04-09T03:41:18;10.90;;;5.57;;
65096;SDS011;51686;46.758;4.356;2023-04-09T03:44:05;11.52;;;5.85;;
65096;SDS011;51686;46.758;4.356;2023-04-09T03:46:52;10.63;;;5.45;;
65096;SDS011;51686;46.758;4.356;2023-04-09T03:49:39;10.75;;;5.80;;
65096;SDS011;51686;46.758;4.356;2023-04-09T03:52:26;10.85;;;5.70;;
65096;SDS011;51686;46.758;4.356;2023-04-09T03:55:12;12.85;;;5.38;;
65096;SDS011;51686;46.758;4.356;2023-04-09T03:57:59;11.60;;;5.47;;
65096;SDS011;51686;46.758;4.356;2023-04-09T04:00:46;10.80;;;5.45;;
65096;SDS011;51686;46.758;4.356;2023-04-09T04:03:34;9.88;;;5.25;;
65096;SDS011;51686;46.758;4.356;2023-04-09T04:06:21;11.30;;;5.97;;
65096;SDS011;51686;46.758;4.356;2023-04-09T04:09:08;10.45;;;5.20;;
65096;SDS011;51686;46.758;4.356;2023-04-09T04:11:55;11.85;;;6.35;;
65096;SDS011;51686;46.758;4.356;2023-04-09T04:14:44;10.55;;;5.22;;
65096;SDS011;51686;46.758;4.356;2023-04-09T04:17:31;10.93;;;5.68;;
65096;SDS011;51686;46.758;4.356;2023-04-09T04:20:18;11.23;;;5.82;;
65096;SDS011;51686;46.758;4.356;2023-04-09T04:23:05;10.40;;;5.57;;
65096;SDS011;51686;46.758;4.356;2023-04-09T04:25:52;10.68;;;5.63;;
65096;SDS011;51686;46.758;4.356;2023-04-09T04:28:39;10.57;;;5.28;;
65096;SDS011;51686;46.758;4.356;2023-04-09T04:31:26;11.32;;;6.07;;
65096;SDS011;51686;46.758;4.356;2023-04-09T04:34:13;10.77;;;5.57;;
65096;SDS011;51686;46.758;4.356;2023-04-09T04:37:00;9.48;;;4.80;;
65096;SDS011;51686;46.758;4.356;2023-04-09T04:39:46;10.38;;;5.43;;
65096;SDS011;51686;46.758;4.356;2023-04-09T04:42:33;10.43;;;5.57;;
65096;SDS011;51686;46.758;4.356;2023-04-09T04:45:21;10.27;;;5.40;;
65096;SDS011;51686;46.758;4.356;2023-04-09T04:48:07;10.82;;;5.30;;
65096;SDS011;51686;46.758;4.356;2023-04-09T04:50:58;11.27;;;5.70;;
65096;SDS011;51686;46.758;4.356;2023-04-09T04:53:46;11.77;;;5.57;;
65096;SDS011;51686;46.758;4.356;2023-04-09T04:56:33;9.90;;;5.13;;
65096;SDS011;51686;46.758;4.356;2023-04-09T04:59:20;10.30;;;5.40;;
65096;SDS011;51686;46.758;4.356;2023-04-09T05:02:07;9.98;;;5.25;;
65096;SDS011;51686;46.758;4.356;2023-04-09T05:04:54;11.57;;;5.60;;
65096;SDS011;51686;46.758;4.356;2023-04-09T05:07:41;11.43;;;5.65;;
65096;SDS011;51686;46.758;4.356;2023-04-09T05:10:28;10.38;;;5.28;;
65096;SDS011;51686;46.758;4.356;2023-04-09T05:13:16;11.82;;;5.78;;
65096;SDS011;51686;46.758;4.356;2023-04-09T05:16:03;10.48;;;5.18;;
65096;SDS011;51686;46.758;4.356;2023-04-09T05:18:50;10.77;;;5.30;;
65096;SDS011;51686;46.758;4.356;2023-04-09T05:21:37;10.35;;;5.53;;
65096;SDS011;51686;46.758;4.356;2023-04-09T05:24:24;10.15;;;5.57;;
65096;SDS011;51686;46.758;4.356;2023-04-09T05:27:12;9.90;;;5.22;;
65096;SDS011;51686;46.758;4.356;2023-04-09T05:29:58;11.10;;;5.78;;
65096;SDS011;51686;46.758;4.356;2023-04-09T05:32:46;10.90;;;5.90;;
65096;SDS011;51686;46.758;4.356;2023-04-09T05:35:36;11.43;;;5.57;;
65096;SDS011;51686;46.758;4.356;2023-04-09T05:38:24;11.18;;;5.78;;
65096;SDS011;51686;46.758;4.356;2023-04-09T05:41:11;10.48;;;5.80;;
65096;SDS011;51686;46.758;4.356;2023-04-09T05:43:58;11.30;;;5.75;;
65096;SDS011;51686;46.758;4.356;2023-04-09T05:46:46;11.20;;;6.18;;
65096;SDS011;51686;46.758;4.356;2023-04-09T05:49:33;11.25;;;5.82;;
65096;SDS011;51686;46.758;4.356;2023-04-09T05:52:20;10.23;;;5.43;;
65096;SDS011;51686;46.758;4.356;2023-04-09T05:55:07;11.23;;;6.03;;
65096;SDS011;51686;46.758;4.356;2023-04-09T05:57:55;11.48;;;5.30;;
65096;SDS011;51686;46.758;4.356;2023-04-09T06:00:42;11.32;;;6.03;;
65096;SDS011;51686;46.758;4.356;2023-04-09T06:03:29;11.13;;;5.70;;
65096;SDS011;51686;46.758;4.356;2023-04-09T06:06:16;11.02;;;5.30;;
65096;SDS011;51686;46.758;4.356;2023-04-09T06:09:03;11.32;;;6.22;;
65096;SDS011;51686;46.758;4.356;2023-04-09T06:11:50;11.45;;;5.70;;
65096;SDS011;51686;46.758;4.356;2023-04-09T06:14:37;11.25;;;6.15;;
65096;SDS011;51686;46.758;4.356;2023-04-09T06:17:24;11.45;;;6.25;;
65096;SDS011;51686;46.758;4.356;2023-04-09T06:20:11;11.82;;;6.32;;
65096;SDS011;51686;46.758;4.356;2023-04-09T06:22:58;11.20;;;6.53;;
65096;SDS011;51686;46.758;4.356;2023-04-09T06:25:45;11.48;;;5.85;;
65096;SDS011;51686;46.758;4.356;2023-04-09T06:28:32;12.50;;;6.47;;
65096;SDS011;51686;46.758;4.356;2023-04-09T06:31:19;11.15;;;5.95;;
65096;SDS011;51686;46.758;4.356;2023-04-09T06:34:06;12.38;;;6.20;;
65096;SDS011;51686;46.758;4.356;2023-04-09T06:36:53;11.90;;;6.97;;
65096;SDS011;51686;46.758;4.356;2023-04-09T06:39:40;12.05;;;6.43;;
65096;SDS011;51686;46.758;4.356;2023-04-09T06:42:43;12.45;;;6.93;;
65096;SDS011;51686;46.758;4.356;2023-04-09T06:45:30;13.00;;;7.10;;
65096;SDS011;51686;46.758;4.356;2023-04-09T06:48:18;12.60;;;6.88;;
65096;SDS011;51686;46.758;4.356;2023-04-09T06:51:05;13.35;;;6.95;;
65096;SDS011;51686;46.758;4.356;2023-04-09T06:53:52;13.80;;;6.70;;
65096;SDS011;51686;46.758;4.356;2023-04-09T06:56:40;12.85;;;6.60;;
65096;SDS011;51686;46.758;4.356;2023-04-09T06:59:27;14.70;;;7.40;;
65096;SDS011;51686;46.758;4.356;2023-04-09T07:02:14;13.27;;;7.03;;
65096;SDS011;51686;46.758;4.356;2023-04-09T07:05:02;13.60;;;6.97;;
65096;SDS011;51686;46.758;4.356;2023-04-09T07:07:49;12.88;;;7.00;;
65096;SDS011;51686;46.758;4.356;2023-04-09T07:10:36;14.30;;;7.72;;
65096;SDS011;51686;46.758;4.356;2023-04-09T07:13:23;12.98;;;6.93;;
65096;SDS011;51686;46.758;4.356;2023-04-09T07:16:10;14.23;;;8.05;;
65096;SDS011;51686;46.758;4.356;2023-04-09T07:18:57;14.43;;;8.02;;
65096;SDS011;51686;46.758;4.356;2023-04-09T07:21:44;13.07;;;7.05;;
65096;SDS011;51686;46.758;4.356;2023-04-09T07:24:31;13.65;;;7.65;;
65096;SDS011;51686;46.758;4.356;2023-04-09T07:27:18;14.82;;;7.40;;
65096;SDS011;51686;46.758;4.356;2023-04-09T07:30:07;14.13;;;7.50;;
65096;SDS011;51686;46.758;4.356;2023-04-09T07:32:54;15.70;;;7.70;;
65096;SDS011;51686;46.758;4.356;2023-04-09T07:35:41;13.40;;;7.22;;
65096;SDS011;51686;46.758;4.356;2023-04-09T07:38:28;13.95;;;7.75;;
65096;SDS011;51686;46.758;4.356;2023-04-09T07:41:15;14.00;;;7.82;;
65096;SDS011;51686;46.758;4.356;2023-04-09T07:44:03;15.63;;;7.53;;
65096;SDS011;51686;46.758;4.356;2023-04-09T07:46:51;13.73;;;7.70;;
65096;SDS011;51686;46.758;4.356;2023-04-09T07:49:38;14.18;;;7.63;;
65096;SDS011;51686;46.758;4.356;2023-04-09T07:52:25;13.82;;;7.55;;
65096;SDS011;51686;46.758;4.356;2023-04-09T07:55:12;13.77;;;8.00;;
65096;SDS011;51686;46.758;4.356;2023-04-09T07:58:00;15.48;;;8.35;;
65096;SDS011;51686;46.758;4.356;2023-04-09T08:00:47;15.88;;;9.07;;
65096;SDS011;51686;46.758;4.356;2023-04-09T08:03:34;16.55;;;9.32;;
65096;SDS011;51686;46.758;4.356;2023-04-09T08:06:22;15.80;;;8.70;;
65096;SDS011;51686;46.758;4.356;2023-04-09T08:09:09;16.20;;;8.75;;
65096;SDS011;51686;46.758;4.356;2023-04-09T08:11:56;14.85;;;8.15;;
65096;SDS011;51686;46.758;4.356;2023-04-09T08:14:43;16.27;;;8.75;;
65096;SDS011;51686;46.758;4.356;2023-04-09T08:17:30;16.52;;;9.07;;
65096;SDS011;51686;46.758;4.356;2023-04-09T08:20:17;14.90;;;8.35;;
65096;SDS011;51686;46.758;4.356;2023-04-09T08:23:04;15.02;;;8.55;;
65096;SDS011;51686;46.758;4.356;2023-04-09T08:25:51;17.67;;;9.13;;
65096;SDS011;51686;46.758;4.356;2023-04-09T08:28:37;15.60;;;8.55;;
65096;SDS011;51686;46.758;4.356;2023-04-09T08:31:24;15.48;;;8.82;;
65096;SDS011;51686;46.758;4.356;2023-04-09T08:34:11;15.68;;;8.07;;
65096;SDS011;51686;46.758;4.356;2023-04-09T08:37:00;15.18;;;8.50;;
65096;SDS011;51686;46.758;4.356;2023-04-09T08:39:48;15.82;;;9.05;;
65096;SDS011;51686;46.758;4.356;2023-04-09T08:42:34;17.73;;;8.95;;
65096;SDS011;51686;46.758;4.356;2023-04-09T08:45:22;16.05;;;9.43;;
65096;SDS011;51686;46.758;4.356;2023-04-09T08:48:10;17.27;;;9.60;;
65096;SDS011;51686;46.758;4.356;2023-04-09T08:50:59;17.55;;;9.65;;
65096;SDS011;51686;46.758;4.356;2023-04-09T08:53:46;16.67;;;9.63;;
65096;SDS011;51686;46.758;4.356;2023-04-09T08:56:38;16.55;;;9.27;;
65096;SDS011;51686;46.758;4.356;2023-04-09T08:59:24;16.75;;;9.52;;
65096;SDS011;51686;46.758;4.356;2023-04-09T09:02:11;18.13;;;10.10;;
65096;SDS011;51686;46.758;4.356;2023-04-09T09:04:58;18.42;;;10.57;;
65096;SDS011;51686;46.758;4.356;2023-04-09T09:07:52;19.15;;;10.32;;
65096;SDS011;51686;46.758;4.356;2023-04-09T09:10:41;18.85;;;10.70;;
65096;SDS011;51686;46.758;4.356;2023-04-09T09:13:29;19.63;;;10.90;;
65096;SDS011;51686;46.758;4.356;2023-04-09T09:16:16;17.50;;;10.38;;
65096;SDS011;51686;46.758;4.356;2023-04-09T09:19:04;17.55;;;10.32;;
65096;SDS011;51686;46.758;4.356;2023-04-09T09:21:54;18.90;;;10.52;;
65096;SDS011;51686;46.758;4.356;2023-04-09T09:24:50;18.52;;;10.10;;
65096;SDS011;51686;46.758;4.356;2023-04-09T09:27:38;17.25;;;10.23;;
65096;SDS011;51686;46.758;4.356;2023-04-09T09:30:26;17.15;;;9.40;;
65096;SDS011;51686;46.758;4.356;2023-04-09T09:33:13;18.10;;;9.60;;
65096;SDS011;51686;46.758;4.356;2023-04-09T09:36:00;16.48;;;9.63;;
65096;SDS011;51686;46.758;4.356;2023-04-09T09:38:50;17.27;;;9.95;;
65096;SDS011;51686;46.758;4.356;2023-04-09T09:41:40;17.58;;;9.85;;
65096;SDS011;51686;46.758;4.356;2023-04-09T09:44:31;18.20;;;10.02;;
65096;SDS011;51686;46.758;4.356;2023-04-09T09:47:19;17.92;;;10.02;;
65096;SDS011;51686;46.758;4.356;2023-04-09T09:50:07;17.50;;;9.13;;
65096;SDS011;51686;46.758;4.356;2023-04-09T09:52:57;17.52;;;9.75;;
65096;SDS011;51686;46.758;4.356;2023-04-09T09:55:48;19.73;;;10.00;;
65096;SDS011;51686;46.758;4.356;2023-04-09T09:58:43;17.40;;;9.80;;
65096;SDS011;51686;46.758;4.356;2023-04-09T10:01:36;16.58;;;9.65;;
65096;SDS011;51686;46.758;4.356;2023-04-09T10:04:23;18.92;;;10.30;;
65096;SDS011;51686;46.758;4.356;2023-04-09T10:07:13;19.55;;;10.63;;
65096;SDS011;51686;46.758;4.356;2023-04-09T10:10:01;17.50;;;9.73;;
65096;SDS011;51686;46.758;4.356;2023-04-09T10:12:49;18.45;;;10.15;;
65096;SDS011;51686;46.758;4.356;2023-04-09T10:15:36;17.90;;;9.82;;
65096;SDS011;51686;46.758;4.356;2023-04-09T10:18:23;17.92;;;10.00;;
65096;SDS011;51686;46.758;4.356;2023-04-09T10:21:16;17.58;;;9.70;;
65096;SDS011;51686;46.758;4.356;2023-04-09T10:24:10;18.58;;;9.95;;
65096;SDS011;51686;46.758;4.356;2023-04-09T10:27:07;18.00;;;10.05;;
65096;SDS011;51686;46.758;4.356;2023-04-09T10:30:01;17.13;;;10.27;;
65096;SDS011;51686;46.758;4.356;2023-04-09T10:32:51;17.85;;;10.30;;
65096;SDS011;51686;46.758;4.356;2023-04-09T10:35:38;18.45;;;10.32;;
65096;SDS011;51686;46.758;4.356;2023-04-09T10:41:21;18.80;;;10.60;;
65096;SDS011;51686;46.758;4.356;2023-04-09T10:44:20;17.38;;;10.15;;
65096;SDS011;51686;46.758;4.356;2023-04-09T10:47:08;18.60;;;9.90;;
65096;SDS011;51686;46.758;4.356;2023-04-09T10:49:56;16.20;;;9.20;;
65096;SDS011;51686;46.758;4.356;2023-04-09T10:52:43;16.85;;;8.85;;
65096;SDS011;51686;46.758;4.356;2023-04-09T10:55:37;17.65;;;9.77;;
65096;SDS011;51686;46.758;4.356;2023-04-09T10:58:27;16.60;;;9.43;;
65096;SDS011;51686;46.758;4.356;2023-04-09T11:01:19;17.08;;;9.68;;
65096;SDS011;51686;46.758;4.356;2023-04-09T11:04:08;16.45;;;9.50;;
65096;SDS011;51686;46.758;4.356;2023-04-09T11:07:03;16.48;;;9.65;;
65096;SDS011;51686;46.758;4.356;2023-04-09T11:09:52;15.52;;;9.45;;
65096;SDS011;51686;46.758;4.356;2023-04-09T11:12:38;17.48;;;9.88;;
65096;SDS011;51686;46.758;4.356;2023-04-09T11:15:25;18.10;;;10.43;;
65096;SDS011;51686;46.758;4.356;2023-04-09T11:18:22;17.30;;;9.10;;
65096;SDS011;51686;46.758;4.356;2023-04-09T11:21:11;16.43;;;9.63;;
65096;SDS011;51686;46.758;4.356;2023-04-09T11:23:59;17.60;;;9.52;;
65096;SDS011;51686;46.758;4.356;2023-04-09T11:26:46;16.25;;;9.63;;
65096;SDS011;51686;46.758;4.356;2023-04-09T11:29:34;15.68;;;9.02;;
65096;SDS011;51686;46.758;4.356;2023-04-09T11:32:22;14.98;;;8.40;;
65096;SDS011;51686;46.758;4.356;2023-04-09T11:35:16;14.50;;;7.90;;
65096;SDS011;51686;46.758;4.356;2023-04-09T11:38:05;15.55;;;9.18;;
65096;SDS011;51686;46.758;4.356;2023-04-09T11:40:55;13.63;;;8.00;;
65096;SDS011;51686;46.758;4.356;2023-04-09T11:43:43;15.30;;;8.35;;
65096;SDS011;51686;46.758;4.356;2023-04-09T11:46:31;15.35;;;8.90;;
65096;SDS011;51686;46.758;4.356;2023-04-09T11:49:18;16.85;;;9.32;;
65096;SDS011;51686;46.758;4.356;2023-04-09T11:52:05;16.27;;;8.80;;
65096;SDS011;51686;46.758;4.356;2023-04-09T11:54:52;15.75;;;8.45;;
65096;SDS011;51686;46.758;4.356;2023-04-09T11:57:45;14.23;;;7.78;;
65096;SDS011;51686;46.758;4.356;2023-04-09T12:00:32;15.77;;;8.68;;
65096;SDS011;51686;46.758;4.356;2023-04-09T12:03:24;14.90;;;8.13;;
65096;SDS011;51686;46.758;4.356;2023-04-09T12:06:17;14.63;;;7.85;;
65096;SDS011;51686;46.758;4.356;2023-04-09T12:09:07;13.77;;;7.63;;
65096;SDS011;51686;46.758;4.356;2023-04-09T12:11:54;15.90;;;8.32;;
65096;SDS011;51686;46.758;4.356;2023-04-09T12:14:44;15.63;;;8.05;;
65096;SDS011;51686;46.758;4.356;2023-04-09T12:17:32;13.80;;;7.70;;
65096;SDS011;51686;46.758;4.356;2023-04-09T12:20:29;13.80;;;7.80;;
65096;SDS011;51686;46.758;4.356;2023-04-09T12:23:17;13.43;;;7.43;;
65096;SDS011;51686;46.758;4.356;2023-04-09T12:26:04;13.55;;;7.53;;
65096;SDS011;51686;46.758;4.356;2023-04-09T12:28:51;13.70;;;7.72;;
65096;SDS011;51686;46.758;4.356;2023-04-09T12:31:38;13.32;;;7.40;;
65096;SDS011;51686;46.758;4.356;2023-04-09T12:34:25;13.15;;;7.00;;
65096;SDS011;51686;46.758;4.356;2023-04-09T12:37:13;14.15;;;8.02;;
65096;SDS011;51686;46.758;4.356;2023-04-09T12:39:59;13.63;;;7.88;;
65096;SDS011;51686;46.758;4.356;2023-04-09T12:42:46;14.48;;;8.18;;
65096;SDS011;51686;46.758;4.356;2023-04-09T12:45:33;13.15;;;7.30;;
65096;SDS011;51686;46.758;4.356;2023-04-09T12:48:20;13.18;;;7.15;;
65096;SDS011;51686;46.758;4.356;2023-04-09T12:51:07;14.60;;;8.30;;
65096;SDS011;51686;46.758;4.356;2023-04-09T12:53:56;15.48;;;8.05;;
65096;SDS011;51686;46.758;4.356;2023-04-09T12:56:43;12.63;;;6.43;;
65096;SDS011;51686;46.758;4.356;2023-04-09T12:59:31;11.48;;;6.45;;
65096;SDS011;51686;46.758;4.356;2023-04-09T13:02:18;12.63;;;7.20;;
65096;SDS011;51686;46.758;4.356;2023-04-09T13:05:07;11.75;;;6.13;;
65096;SDS011;51686;46.758;4.356;2023-04-09T13:07:54;13.00;;;6.97;;
65096;SDS011;51686;46.758;4.356;2023-04-09T13:10:40;13.63;;;7.22;;
65096;SDS011;51686;46.758;4.356;2023-04-09T13:13:27;13.30;;;7.05;;
65096;SDS011;51686;46.758;4.356;2023-04-09T13:16:15;11.90;;;6.72;;
65096;SDS011;51686;46.758;4.356;2023-04-09T13:19:02;11.85;;;6.65;;
65096;SDS011;51686;46.758;4.356;2023-04-09T13:21:49;12.55;;;7.00;;
65096;SDS011;51686;46.758;4.356;2023-04-09T13:24:36;13.80;;;7.40;;
65096;SDS011;51686;46.758;4.356;2023-04-09T13:27:23;13.65;;;7.43;;
65096;SDS011;51686;46.758;4.356;2023-04-09T13:30:10;13.55;;;7.60;;
65096;SDS011;51686;46.758;4.356;2023-04-09T13:32:58;12.35;;;7.00;;
65096;SDS011;51686;46.758;4.356;2023-04-09T13:35:45;13.10;;;7.35;;
65096;SDS011;51686;46.758;4.356;2023-04-09T13:38:32;11.70;;;6.85;;
65096;SDS011;51686;46.758;4.356;2023-04-09T13:41:19;12.93;;;7.07;;
65096;SDS011;51686;46.758;4.356;2023-04-09T13:44:06;13.43;;;7.57;;
65096;SDS011;51686;46.758;4.356;2023-04-09T13:46:53;13.65;;;7.72;;
65096;SDS011;51686;46.758;4.356;2023-04-09T13:49:40;14.23;;;7.43;;
65096;SDS011;51686;46.758;4.356;2023-04-09T13:52:27;12.75;;;7.18;;
65096;SDS011;51686;46.758;4.356;2023-04-09T13:55:15;12.68;;;6.97;;
65096;SDS011;51686;46.758;4.356;2023-04-09T13:58:02;12.57;;;7.07;;
65096;SDS011;51686;46.758;4.356;2023-04-09T14:00:49;12.88;;;7.10;;
65096;SDS011;51686;46.758;4.356;2023-04-09T14:03:36;13.55;;;7.55;;
65096;SDS011;51686;46.758;4.356;2023-04-09T14:06:27;12.93;;;7.03;;
65096;SDS011;51686;46.758;4.356;2023-04-09T14:09:14;11.82;;;6.63;;
65096;SDS011;51686;46.758;4.356;2023-04-09T14:12:01;12.18;;;7.32;;
65096;SDS011;51686;46.758;4.356;2023-04-09T14:14:48;12.98;;;6.88;;
65096;SDS011;51686;46.758;4.356;2023-04-09T14:17:35;12.60;;;7.05;;
65096;SDS011;51686;46.758;4.356;2023-04-09T14:20:22;12.93;;;6.93;;
65096;SDS011;51686;46.758;4.356;2023-04-09T14:23:10;12.90;;;7.05;;
65096;SDS011;51686;46.758;4.356;2023-04-09T14:25:57;12.80;;;7.03;;
65096;SDS011;51686;46.758;4.356;2023-04-09T14:28:44;13.13;;;6.90;;
65096;SDS011;51686;46.758;4.356;2023-04-09T14:31:32;12.65;;;7.57;;
65096;SDS011;51686;46.758;4.356;2023-04-09T14:34:19;12.50;;;7.03;;
65096;SDS011;51686;46.758;4.356;2023-04-09T14:37:06;13.15;;;7.60;;
65096;SDS011;51686;46.758;4.356;2023-04-09T14:39:53;14.07;;;7.65;;
65096;SDS011;51686;46.758;4.356;2023-04-09T14:42:41;13.18;;;7.35;;
65096;SDS011;51686;46.758;4.356;2023-04-09T14:45:28;12.60;;;7.20;;
65096;SDS011;51686;46.758;4.356;2023-04-09T14:48:16;12.35;;;6.88;;
65096;SDS011;51686;46.758;4.356;2023-04-09T14:51:03;13.80;;;6.95;;
65096;SDS011;51686;46.758;4.356;2023-04-09T14:53:51;12.93;;;7.57;;
65096;SDS011;51686;46.758;4.356;2023-04-09T14:56:38;13.32;;;7.03;;
65096;SDS011;51686;46.758;4.356;2023-04-09T14:59:25;14.15;;;7.03;;
65096;SDS011;51686;46.758;4.356;2023-04-09T15:02:12;12.25;;;6.85;;
65096;SDS011;51686;46.758;4.356;2023-04-09T15:05:00;12.63;;;7.30;;
65096;SDS011;51686;46.758;4.356;2023-04-09T15:07:47;14.88;;;7.78;;
65096;SDS011;51686;46.758;4.356;2023-04-09T15:10:37;13.13;;;7.75;;
65096;SDS011;51686;46.758;4.356;2023-04-09T15:13:24;13.93;;;7.47;;
65096;SDS011;51686;46.758;4.356;2023-04-09T15:16:19;14.52;;;8.23;;
65096;SDS011;51686;46.758;4.356;2023-04-09T15:19:07;13.52;;;7.72;;
65096;SDS011;51686;46.758;4.356;2023-04-09T15:21:54;14.43;;;7.55;;
65096;SDS011;51686;46.758;4.356;2023-04-09T15:24:41;13.60;;;7.53;;
65096;SDS011;51686;46.758;4.356;2023-04-09T15:27:28;12.00;;;6.93;;
65096;SDS011;51686;46.758;4.356;2023-04-09T15:30:15;13.13;;;7.43;;
65096;SDS011;51686;46.758;4.356;2023-04-09T15:33:03;12.27;;;6.88;;
65096;SDS011;51686;46.758;4.356;2023-04-09T15:35:50;13.05;;;6.90;;
65096;SDS011;51686;46.758;4.356;2023-04-09T15:38:37;11.07;;;6.22;;
65096;SDS011;51686;46.758;4.356;2023-04-09T15:41:24;12.35;;;7.00;;
65096;SDS011;51686;46.758;4.356;2023-04-09T15:44:12;11.18;;;6.00;;
65096;SDS011;51686;46.758;4.356;2023-04-09T15:46:59;11.45;;;6.25;;
65096;SDS011;51686;46.758;4.356;2023-04-09T15:49:46;10.18;;;5.30;;
65096;SDS011;51686;46.758;4.356;2023-04-09T15:52:32;11.10;;;5.28;;
65096;SDS011;51686;46.758;4.356;2023-04-09T15:55:19;11.27;;;5.70;;
65096;SDS011;51686;46.758;4.356;2023-04-09T15:58:07;10.57;;;5.33;;
65096;SDS011;51686;46.758;4.356;2023-04-09T16:00:54;10.63;;;5.72;;
65096;SDS011;51686;46.758;4.356;2023-04-09T16:03:41;10.40;;;5.80;;
65096;SDS011;51686;46.758;4.356;2023-04-09T16:06:28;11.07;;;5.93;;
65096;SDS011;51686;46.758;4.356;2023-04-09T16:09:15;11.80;;;6.13;;
65096;SDS011;51686;46.758;4.356;2023-04-09T16:12:02;11.00;;;6.00;;
65096;SDS011;51686;46.758;4.356;2023-04-09T16:14:49;11.23;;;5.63;;
65096;SDS011;51686;46.758;4.356;2023-04-09T16:17:36;11.23;;;5.95;;
65096;SDS011;51686;46.758;4.356;2023-04-09T16:20:26;10.23;;;5.38;;
65096;SDS011;51686;46.758;4.356;2023-04-09T16:23:14;10.23;;;5.47;;
65096;SDS011;51686;46.758;4.356;2023-04-09T16:26:01;10.32;;;5.53;;
65096;SDS011;51686;46.758;4.356;2023-04-09T16:28:48;10.43;;;5.38;;
65096;SDS011;51686;46.758;4.356;2023-04-09T16:31:35;10.93;;;5.85;;
65096;SDS011;51686;46.758;4.356;2023-04-09T16:34:23;10.68;;;5.55;;
65096;SDS011;51686;46.758;4.356;2023-04-09T16:37:10;10.95;;;5.38;;
65096;SDS011;51686;46.758;4.356;2023-04-09T16:39:57;10.85;;;5.93;;
65096;SDS011;51686;46.758;4.356;2023-04-09T16:42:44;11.18;;;6.18;;
65096;SDS011;51686;46.758;4.356;2023-04-09T16:45:31;11.25;;;5.93;;
65096;SDS011;51686;46.758;4.356;2023-04-09T16:48:18;11.50;;;6.03;;